Time;durP1;ratioP1;P1;durP2;ratioP2;P2;SDS_P1;SDS_P2;PMS_P1;PMS_P2;Temp;Humidity;BMP_temperature;BMP_pressure;BME280_temperature;BME280_humidity;BME280_pressure;Samples;Min_cycle;Max_cycle;Signal;HPM_P1;HPM_P2
2022/12/09 00:00:24;;;;;;;55.43;25.87;;;-0.50;99.90;;;;;;4962394;28;20186;-81
2022/12/09 00:02:49;;;;;;;51.17;24.80;;;-0.60;99.90;;;;;;4961033;28;21152;-81
2022/12/09 00:05:15;;;;;;;49.33;25.37;;;-0.60;99.90;;;;;;4967614;28;20190;-81
2022/12/09 00:07:40;;;;;;;53.43;24.23;;;-0.50;99.90;;;;;;4960929;28;20196;-81
2022/12/09 00:10:06;;;;;;;58.80;25.67;;;-0.40;99.90;;;;;;4959698;28;20217;-82
2022/12/09 00:12:32;;;;;;;64.63;27.43;;;-0.40;99.90;;;;;;4962699;28;20225;-82
2022/12/09 00:14:58;;;;;;;53.00;25.13;;;-0.30;99.90;;;;;;4962614;28;20682;-81
2022/12/09 00:17:23;;;;;;;56.63;25.50;;;-0.20;99.90;;;;;;4961560;28;20276;-81
2022/12/09 00:19:49;;;;;;;64.03;26.13;;;-0.20;99.90;;;;;;4960024;28;20607;-81
2022/12/09 00:22:14;;;;;;;58.63;26.83;;;-0.20;99.90;;;;;;4957616;28;20201;-80
2022/12/09 00:24:40;;;;;;;58.47;25.67;;;0.70;99.90;;;;;;4957828;28;20201;-81
2022/12/09 00:27:05;;;;;;;66.47;28.50;;;-0.10;99.90;;;;;;4956693;28;20292;-80
2022/12/09 00:29:31;;;;;;;50.20;24.40;;;-0.10;99.90;;;;;;4958022;28;20651;-80
2022/12/09 00:31:56;;;;;;;61.77;26.63;;;0.00;99.90;;;;;;4957351;28;20216;-80
2022/12/09 00:34:22;;;;;;;59.07;27.17;;;0.10;99.90;;;;;;4956859;28;20289;-82
2022/12/09 00:36:47;;;;;;;62.37;26.60;;;0.20;99.90;;;;;;4959861;28;20723;-82
2022/12/09 00:39:13;;;;;;;58.97;26.27;;;0.10;99.90;;;;;;4958873;28;20185;-81
2022/12/09 00:41:39;;;;;;;55.23;24.53;;;0.10;99.90;;;;;;4958994;28;20188;-82
2022/12/09 00:44:04;;;;;;;57.40;26.20;;;0.10;99.90;;;;;;4962522;28;20201;-81
2022/12/09 00:46:30;;;;;;;59.60;26.97;;;0.40;99.90;;;;;;4962488;28;20201;-82
2022/12/09 00:48:56;;;;;;;53.50;25.70;;;0.10;99.90;;;;;;4960718;28;20219;-82
2022/12/09 00:51:23;;;;;;;57.13;25.10;;;0.10;99.90;;;;;;4961760;28;20540;-82
2022/12/09 00:53:55;;;;;;;57.57;25.53;;;-0.10;99.90;;;;;;4963050;28;20633;-82
2022/12/09 00:56:23;;;;;;;48.40;23.43;;;-0.20;99.90;;;;;;4957922;28;20205;-82
2022/12/09 00:58:48;;;;;;;47.33;23.30;;;-0.40;99.90;;;;;;4957737;28;20194;-81
2022/12/09 01:01:14;;;;;;;46.33;22.90;;;-0.50;99.90;;;;;;4958427;28;20648;-82
2022/12/09 01:03:40;;;;;;;46.33;23.57;;;-0.50;99.90;;;;;;4960475;28;20215;-82
2022/12/09 01:06:10;;;;;;;43.27;22.40;;;-0.50;99.90;;;;;;4960215;28;20268;-82
2022/12/09 01:08:36;;;;;;;46.57;22.87;;;-0.40;99.90;;;;;;4959520;28;20849;-82
2022/12/09 01:11:08;;;;;;;46.37;22.30;;;-0.40;99.90;;;;;;4959380;28;20248;-81
2022/12/09 01:13:34;;;;;;;42.37;22.37;;;-0.40;99.90;;;;;;4976740;28;20674;-81
2022/12/09 01:15:59;;;;;;;47.03;22.40;;;-0.40;99.90;;;;;;4962652;28;20220;-81
2022/12/09 01:18:25;;;;;;;48.67;22.37;;;0.40;99.90;;;;;;4960685;28;20185;-82
2022/12/09 01:20:57;;;;;;;44.80;22.37;;;-0.50;99.90;;;;;;4960101;28;20625;-82
2022/12/09 01:23:24;;;;;;;42.27;21.00;;;-0.60;99.90;;;;;;4961861;28;20296;-82
2022/12/09 01:25:49;;;;;;;41.40;21.00;;;-0.60;99.90;;;;;;4960702;28;20201;-82
2022/12/09 01:28:15;;;;;;;46.20;21.87;;;-0.60;99.90;;;;;;4961432;28;20193;-82
2022/12/09 01:30:40;;;;;;;48.67;22.97;;;-0.60;99.90;;;;;;4961174;28;21120;-82
2022/12/09 01:33:06;;;;;;;44.60;21.57;;;0.40;99.90;;;;;;4959420;28;20295;-81
2022/12/09 01:35:32;;;;;;;47.63;23.40;;;-0.50;99.90;;;;;;4964022;28;20665;-82
2022/12/09 01:37:57;;;;;;;47.93;22.87;;;-0.50;99.90;;;;;;4963993;28;20201;-82
2022/12/09 01:40:23;;;;;;;49.43;23.83;;;-0.40;99.90;;;;;;4962781;28;20699;-81
2022/12/09 01:42:49;;;;;;;52.50;24.53;;;-0.40;99.90;;;;;;4964699;28;20302;-82
2022/12/09 01:45:22;;;;;;;47.00;23.10;;;-0.40;99.90;;;;;;4965672;28;20252;-82
2022/12/09 01:48:12;;;;;;;50.87;24.50;;;-0.30;99.90;;;;;;4964973;28;20710;-81
2022/12/09 01:51:00;;;;;;;52.17;23.47;;;-0.30;99.90;;;;;;4964935;28;20285;-82
2022/12/09 01:53:34;;;;;;;50.47;23.63;;;-0.30;99.90;;;;;;4963683;28;20217;-82
2022/12/09 01:56:05;;;;;;;47.43;23.73;;;-0.20;99.90;;;;;;4965085;28;20237;-82
2022/12/09 01:58:31;;;;;;;52.57;23.77;;;-0.30;99.90;;;;;;4965007;28;20185;-82
2022/12/09 02:00:57;;;;;;;53.00;23.83;;;-0.20;99.90;;;;;;4965947;28;20195;-82
2022/12/09 02:03:22;;;;;;;52.30;24.43;;;-0.10;99.90;;;;;;4964501;28;20679;-82
2022/12/09 02:05:48;;;;;;;51.40;23.63;;;-0.10;99.90;;;;;;4964871;28;20203;-82
2022/12/09 02:08:17;;;;;;;49.00;22.73;;;0.00;99.90;;;;;;4963318;28;20243;-82
2022/12/09 02:10:59;;;;;;;51.07;23.73;;;0.00;99.90;;;;;;4965997;28;20192;-82
2022/12/09 02:13:29;;;;;;;49.10;23.83;;;0.80;99.90;;;;;;4965461;28;20213;-81
2022/12/09 02:15:58;;;;;;;54.13;24.63;;;0.10;99.90;;;;;;4979585;28;20205;-82
2022/12/09 02:18:53;;;;;;;48.47;23.03;;;0.10;99.90;;;;;;4965018;28;20181;-82
2022/12/09 02:21:42;;;;;;;46.77;23.40;;;0.30;99.90;;;;;;4963955;28;20189;-83
2022/12/09 02:24:20;;;;;;;47.67;22.83;;;0.20;99.90;;;;;;4964491;28;20223;-82
2022/12/09 02:27:03;;;;;;;41.60;21.17;;;0.00;99.90;;;;;;4962929;28;20228;-82
2022/12/09 02:29:49;;;;;;;43.93;21.47;;;-0.30;99.90;;;;;;4963853;28;20188;-83
2022/12/09 02:32:55;;;;;;;43.07;21.20;;;-0.50;99.90;;;;;;4963388;28;20783;-82
2022/12/09 02:35:35;;;;;;;42.60;20.23;;;-0.80;99.90;;;;;;4978410;28;20205;-83
2022/12/09 02:38:12;;;;;;;45.57;23.00;;;-0.90;99.90;;;;;;4978679;28;20256;-83
2022/12/09 02:41:02;;;;;;;47.40;22.53;;;-0.90;99.90;;;;;;4964497;28;20219;-82
2022/12/09 02:43:32;;;;;;;46.47;21.67;;;-0.90;99.90;;;;;;4963134;28;20690;-81
2022/12/09 02:46:00;;;;;;;44.80;22.47;;;-0.90;99.90;;;;;;4964783;28;20196;-82
2022/12/09 02:48:34;;;;;;;46.70;23.23;;;-0.90;99.90;;;;;;4980203;28;20195;-82
2022/12/09 02:51:05;;;;;;;49.63;21.93;;;-1.00;99.90;;;;;;4960997;28;21127;-82
2022/12/09 02:53:31;;;;;;;54.27;22.80;;;-1.00;99.90;;;;;;4964699;28;20220;-82
2022/12/09 02:55:57;;;;;;;50.60;22.93;;;-0.90;99.90;;;;;;4971196;28;20216;-81
2022/12/09 02:58:23;;;;;;;53.43;22.57;;;-0.90;99.90;;;;;;4963973;28;20189;-82
2022/12/09 03:00:50;;;;;;;49.07;22.43;;;-0.70;99.90;;;;;;4970607;28;20564;-83
2022/12/09 03:03:17;;;;;;;54.10;22.57;;;-0.70;99.90;;;;;;4972206;28;20291;-83
2022/12/09 03:05:58;;;;;;;47.10;23.53;;;-0.60;99.90;;;;;;4965653;28;20192;-83
2022/12/09 03:08:30;;;;;;;47.93;21.83;;;-0.50;99.90;;;;;;4965870;28;20604;-83
2022/12/09 03:11:00;;;;;;;47.63;22.33;;;-0.40;99.90;;;;;;4966039;28;20209;-83
2022/12/09 03:13:26;;;;;;;58.43;23.50;;;-0.30;99.90;;;;;;4965822;28;20213;-83
2022/12/09 03:15:56;;;;;;;54.87;23.70;;;-0.30;99.90;;;;;;4965025;28;20217;-83
2022/12/09 03:18:26;;;;;;;46.63;21.97;;;-0.30;99.90;;;;;;4968083;28;20217;-81
2022/12/09 03:20:53;;;;;;;50.17;22.90;;;-0.20;99.90;;;;;;4969084;28;20195;-81
2022/12/09 03:23:23;;;;;;;49.30;23.17;;;-0.20;99.90;;;;;;4960532;28;20255;-81
2022/12/09 03:25:51;;;;;;;49.53;22.93;;;-0.20;99.90;;;;;;4958337;28;20262;-81
2022/12/09 03:28:23;;;;;;;51.43;24.07;;;0.00;99.90;;;;;;4960207;28;20209;-80
2022/12/09 03:30:50;;;;;;;52.93;24.20;;;0.10;99.90;;;;;;4960699;28;20275;-81
2022/12/09 03:33:19;;;;;;;52.77;23.87;;;0.20;99.90;;;;;;4961598;28;20221;-81
2022/12/09 03:35:56;;;;;;;50.37;22.27;;;-0.10;99.90;;;;;;4962060;28;20210;-83
2022/12/09 03:38:25;;;;;;;53.70;24.50;;;0.90;99.90;;;;;;4971186;28;20181;-83
2022/12/09 03:40:57;;;;;;;55.13;24.23;;;0.00;99.90;;;;;;4972244;28;20192;-83
2022/12/09 03:43:27;;;;;;;49.10;22.90;;;0.00;99.90;;;;;;4963648;28;20684;-83
2022/12/09 03:45:54;;;;;;;54.43;23.90;;;0.00;99.90;;;;;;4966505;28;20631;-83
2022/12/09 03:48:21;;;;;;;60.00;27.13;;;0.00;99.90;;;;;;4961378;28;20197;-83
2022/12/09 03:50:54;;;;;;;57.57;24.90;;;0.10;99.90;;;;;;4963590;28;20621;-82
2022/12/09 03:53:24;;;;;;;51.93;24.30;;;0.10;99.90;;;;;;4962738;28;20703;-83
2022/12/09 03:56:02;;;;;;;54.23;23.40;;;0.20;99.90;;;;;;4963811;28;20972;-83
2022/12/09 03:58:32;;;;;;;49.63;23.53;;;0.20;99.90;;;;;;4962662;28;20232;-83
2022/12/09 04:00:58;;;;;;;57.93;24.63;;;0.30;99.90;;;;;;4970737;28;20207;-82
2022/12/09 04:03:24;;;;;;;49.90;23.60;;;0.30;99.90;;;;;;4962565;28;20228;-83
2022/12/09 04:05:50;;;;;;;51.07;25.40;;;0.10;99.90;;;;;;4963817;28;20208;-83
2022/12/09 04:08:15;;;;;;;45.43;21.83;;;0.00;99.90;;;;;;4964515;28;20184;-83
2022/12/09 04:10:41;;;;;;;48.57;22.93;;;0.00;99.90;;;;;;4964706;28;20192;-81
2022/12/09 04:13:07;;;;;;;43.17;21.93;;;-0.20;99.90;;;;;;4963678;28;20200;-83
2022/12/09 04:15:32;;;;;;;52.40;23.20;;;-0.30;99.90;;;;;;4962664;28;20235;-83
2022/12/09 04:17:58;;;;;;;45.03;22.63;;;-0.30;99.90;;;;;;4962969;28;20200;-83
2022/12/09 04:20:23;;;;;;;47.20;23.00;;;-0.30;99.90;;;;;;4965409;28;20181;-84
2022/12/09 04:22:49;;;;;;;46.40;22.47;;;-0.20;99.90;;;;;;4962486;28;20574;-83
2022/12/09 04:25:15;;;;;;;46.70;21.90;;;-0.30;99.90;;;;;;4963739;28;20177;-82
2022/12/09 04:27:40;;;;;;;45.43;22.00;;;-0.30;99.90;;;;;;4963513;28;20197;-83
2022/12/09 04:30:07;;;;;;;47.17;21.83;;;-0.30;99.90;;;;;;4962870;28;20185;-83
2022/12/09 04:32:32;;;;;;;45.13;22.47;;;-0.30;99.90;;;;;;4960289;28;20225;-80
2022/12/09 04:34:58;;;;;;;50.40;23.40;;;-0.30;99.90;;;;;;4969536;28;20820;-81
2022/12/09 04:37:23;;;;;;;44.30;21.17;;;-0.30;99.90;;;;;;4971082;28;20185;-82
2022/12/09 04:39:49;;;;;;;42.50;20.50;;;-0.40;99.90;;;;;;4971505;28;20182;-83
2022/12/09 04:42:14;;;;;;;43.83;22.00;;;-0.40;99.90;;;;;;4972393;28;20204;-80
2022/12/09 04:44:40;;;;;;;43.63;21.30;;;-0.50;99.90;;;;;;4972683;28;20189;-83
2022/12/09 04:47:06;;;;;;;43.37;20.17;;;-0.40;99.90;;;;;;4972303;28;20190;-80
2022/12/09 04:49:31;;;;;;;43.10;19.90;;;-0.40;99.90;;;;;;4967210;28;20285;-83
2022/12/09 04:51:57;;;;;;;40.63;20.37;;;-0.50;99.90;;;;;;4963608;28;20189;-83
2022/12/09 04:54:23;;;;;;;43.07;20.50;;;-0.40;99.90;;;;;;4961542;28;20215;-84
2022/12/09 04:56:48;;;;;;;47.30;20.77;;;-0.40;99.90;;;;;;4965154;28;20204;-83
2022/12/09 04:59:14;;;;;;;45.53;21.40;;;-0.50;99.90;;;;;;4967615;28;20268;-84
2022/12/09 05:01:40;;;;;;;41.40;20.77;;;-0.50;99.90;;;;;;4961776;28;20181;-84
2022/12/09 05:04:06;;;;;;;40.60;20.90;;;-0.60;99.90;;;;;;4968205;28;20215;-82
2022/12/09 05:06:32;;;;;;;40.87;20.27;;;-0.80;99.90;;;;;;4963927;28;20244;-84
2022/12/09 05:08:58;;;;;;;42.30;20.33;;;-0.90;99.90;;;;;;4965150;28;20290;-81
2022/12/09 05:11:24;;;;;;;40.77;20.43;;;-1.00;99.90;;;;;;4966623;28;20193;-82
2022/12/09 05:13:50;;;;;;;43.77;19.47;;;-1.10;99.90;;;;;;4984047;28;20292;-83
2022/12/09 05:16:18;;;;;;;41.47;19.10;;;-1.10;99.90;;;;;;4965193;28;20304;-83
2022/12/09 05:18:45;;;;;;;39.23;19.27;;;-1.30;99.90;;;;;;4967780;28;20643;-81
2022/12/09 05:21:14;;;;;;;35.23;18.63;;;-1.30;99.90;;;;;;4967819;28;20229;-83
2022/12/09 05:23:40;;;;;;;39.90;19.00;;;-1.10;99.90;;;;;;4967713;28;20562;-83
2022/12/09 05:26:08;;;;;;;42.27;19.10;;;-1.40;99.90;;;;;;4965913;28;20212;-83
2022/12/09 05:28:34;;;;;;;37.53;19.23;;;-1.50;99.90;;;;;;4970543;28;20249;-81
2022/12/09 05:31:06;;;;;;;37.40;18.87;;;-1.50;99.90;;;;;;4971190;28;20279;-81
2022/12/09 05:33:32;;;;;;;41.87;20.23;;;-1.60;99.90;;;;;;4966137;28;20232;-81
2022/12/09 05:35:58;;;;;;;41.93;19.23;;;-1.40;99.90;;;;;;4963945;28;20206;-81
2022/12/09 05:38:24;;;;;;;40.17;19.50;;;-1.50;99.90;;;;;;4968890;28;20195;-80
2022/12/09 05:40:50;;;;;;;42.70;19.63;;;-1.60;99.90;;;;;;4972426;28;20185;-81
2022/12/09 05:43:16;;;;;;;43.37;20.67;;;-1.60;99.90;;;;;;4970058;28;20637;-81
2022/12/09 05:45:42;;;;;;;39.97;19.80;;;-1.60;99.90;;;;;;4969714;28;20200;-83
2022/12/09 05:48:08;;;;;;;38.67;18.83;;;-1.70;99.90;;;;;;4966795;28;20189;-83
2022/12/09 05:50:34;;;;;;;41.23;20.07;;;-1.70;99.90;;;;;;4964316;28;20571;-81
2022/12/09 05:53:00;;;;;;;42.63;19.63;;;-1.60;99.90;;;;;;4973316;28;20220;-81
2022/12/09 05:55:26;;;;;;;40.30;20.23;;;-1.70;99.90;;;;;;4972443;28;20766;-82
2022/12/09 05:57:51;;;;;;;40.97;19.20;;;-1.80;99.90;;;;;;4969245;28;20208;-81
2022/12/09 06:00:17;;;;;;;38.70;18.97;;;-1.80;99.90;;;;;;4963503;28;20272;-81
2022/12/09 06:02:43;;;;;;;42.70;19.57;;;-1.80;99.90;;;;;;4987869;28;20241;-82
2022/12/09 06:05:09;;;;;;;39.80;18.73;;;-1.70;99.90;;;;;;4963863;28;20240;-81
2022/12/09 06:07:35;;;;;;;36.17;19.30;;;-1.60;99.90;;;;;;4963714;28;20192;-80
2022/12/09 06:10:01;;;;;;;40.07;19.07;;;-1.50;99.90;;;;;;4972991;28;20189;-80
2022/12/09 06:12:27;;;;;;;33.87;18.47;;;-1.50;99.90;;;;;;4963489;28;20217;-82
2022/12/09 06:14:53;;;;;;;30.40;17.90;;;-1.50;99.90;;;;;;4961634;28;20220;-81
2022/12/09 06:17:19;;;;;;;39.93;18.67;;;-1.50;99.90;;;;;;4970346;28;20181;-80
2022/12/09 06:19:44;;;;;;;36.03;19.07;;;-1.40;99.90;;;;;;4962608;28;20192;-81
2022/12/09 06:22:10;;;;;;;41.40;18.73;;;-1.20;99.90;;;;;;4961447;28;20217;-81
2022/12/09 06:24:36;;;;;;;34.87;18.20;;;-1.20;99.90;;;;;;4970903;28;20189;-81
2022/12/09 06:27:02;;;;;;;35.03;18.10;;;-1.30;99.90;;;;;;4968128;28;20715;-83
2022/12/09 06:29:27;;;;;;;53.37;19.23;;;-1.30;99.90;;;;;;4972615;28;20643;-83
2022/12/09 06:31:53;;;;;;;48.73;18.00;;;-1.40;99.90;;;;;;4969840;28;20177;-81
2022/12/09 06:34:19;;;;;;;35.73;18.37;;;-1.40;99.90;;;;;;4970230;28;20200;-83
2022/12/09 06:36:44;;;;;;;28.03;15.60;;;-0.70;99.90;;;;;;4965987;28;20224;-83
2022/12/09 06:39:10;;;;;;;30.17;16.63;;;-1.60;99.90;;;;;;4976476;28;20320;-81
2022/12/09 06:41:38;;;;;;;25.60;15.53;;;-1.70;99.90;;;;;;4973162;28;20663;-84
2022/12/09 06:44:04;;;;;;;27.17;15.33;;;-1.80;99.90;;;;;;4969257;28;20234;-83
2022/12/09 06:46:29;;;;;;;28.57;16.63;;;-0.90;99.90;;;;;;4968697;28;20277;-82
2022/12/09 06:48:55;;;;;;;27.83;15.53;;;-1.80;99.90;;;;;;4968751;28;20268;-83
2022/12/09 06:51:22;;;;;;;29.00;16.70;;;-1.80;99.90;;;;;;4966904;28;20543;-81
2022/12/09 06:53:48;;;;;;;27.87;16.50;;;-1.90;99.90;;;;;;4968685;28;20212;-83
2022/12/09 06:56:14;;;;;;;29.47;15.67;;;-2.10;99.90;;;;;;4971053;28;20591;-82
2022/12/09 06:58:42;;;;;;;26.50;15.97;;;-2.20;99.90;;;;;;4965712;28;20182;-81
2022/12/09 07:01:22;;;;;;;26.03;14.97;;;-2.20;99.90;;;;;;4968360;28;20193;-83
2022/12/09 07:03:50;;;;;;;29.03;15.50;;;-2.30;99.90;;;;;;4968555;28;20614;-83
2022/12/09 07:06:26;;;;;;;27.87;15.93;;;-2.20;99.90;;;;;;4966703;28;20285;-83
2022/12/09 07:08:53;;;;;;;26.40;15.70;;;-2.30;99.90;;;;;;4968079;28;20176;-83
2022/12/09 07:11:18;;;;;;;29.33;16.43;;;-2.30;99.90;;;;;;4968303;28;20265;-82
2022/12/09 07:13:44;;;;;;;30.57;16.57;;;-2.30;99.90;;;;;;4965449;28;20615;-84
2022/12/09 07:16:10;;;;;;;31.77;16.50;;;-2.30;99.90;;;;;;4967396;28;20200;-81
2022/12/09 07:18:35;;;;;;;29.63;15.97;;;-2.30;99.90;;;;;;4962419;28;20181;-80
2022/12/09 07:21:13;;;;;;;33.03;17.00;;;-2.40;99.90;;;;;;4962613;28;20674;-82
2022/12/09 07:23:39;;;;;;;34.13;16.63;;;-2.30;99.90;;;;;;4980304;28;20229;-82
2022/12/09 07:26:05;;;;;;;33.23;16.50;;;-2.40;99.90;;;;;;4962187;28;20217;-81
2022/12/09 07:28:32;;;;;;;46.43;17.10;;;-2.40;99.90;;;;;;4960048;28;20181;-81
2022/12/09 07:30:58;;;;;;;36.23;16.40;;;-2.40;99.90;;;;;;4961753;28;20184;-80
2022/12/09 07:33:24;;;;;;;44.63;17.33;;;-2.40;99.90;;;;;;4960846;28;20644;-81
2022/12/09 07:35:54;;;;;;;29.83;16.43;;;-2.50;99.90;;;;;;4959276;28;20702;-80
2022/12/09 07:38:19;;;;;;;25.97;14.60;;;-2.50;99.90;;;;;;4960123;28;20247;-80
2022/12/09 07:40:45;;;;;;;25.43;14.70;;;-2.50;99.90;;;;;;4959096;28;21062;-82
2022/12/09 07:43:11;;;;;;;29.87;15.57;;;-2.50;99.90;;;;;;4959551;28;20201;-83
2022/12/09 07:45:37;;;;;;;38.20;17.70;;;-2.50;99.90;;;;;;4962752;28;20189;-81
2022/12/09 07:48:03;;;;;;;49.30;18.73;;;-2.40;99.90;;;;;;4956754;28;21700;-82
2022/12/09 07:50:28;;;;;;;41.67;17.70;;;-2.30;99.90;;;;;;4958161;28;20189;-82
2022/12/09 07:52:54;;;;;;;146.17;59.43;;;-2.10;99.90;;;;;;4957968;28;21293;-81
2022/12/09 07:55:20;;;;;;;858.63;321.30;;;-2.00;99.90;;;;;;4975746;28;20221;-82
2022/12/09 07:57:45;;;;;;;93.53;38.80;;;-1.80;99.90;;;;;;4959633;28;20847;-81
2022/12/09 08:00:11;;;;;;;113.30;43.43;;;-1.80;99.90;;;;;;4959297;28;20192;-82
2022/12/09 08:02:37;;;;;;;62.07;21.47;;;-1.80;99.90;;;;;;4974574;28;20751;-80
2022/12/09 08:05:03;;;;;;;54.37;22.73;;;-1.90;99.90;;;;;;4960534;28;20208;-82
2022/12/09 08:07:29;;;;;;;45.60;22.23;;;-1.80;99.90;;;;;;4958259;28;20632;-81
2022/12/09 08:09:55;;;;;;;46.67;20.40;;;-1.90;99.90;;;;;;4957487;28;20189;-80
2022/12/09 08:12:21;;;;;;;48.73;19.83;;;-1.80;99.90;;;;;;4974219;28;20574;-81
2022/12/09 08:14:47;;;;;;;42.53;20.20;;;-1.80;99.90;;;;;;4958577;28;20607;-80
2022/12/09 08:17:13;;;;;;;48.37;21.50;;;-1.70;99.90;;;;;;4957299;28;20209;-78
2022/12/09 08:19:39;;;;;;;43.73;18.87;;;-1.70;99.90;;;;;;4959167;28;20181;-81
2022/12/09 08:22:06;;;;;;;41.50;19.10;;;-1.80;99.90;;;;;;4961592;28;20177;-81
2022/12/09 08:24:38;;;;;;;42.03;18.73;;;-1.80;99.90;;;;;;4966588;28;20263;-82
2022/12/09 08:27:37;;;;;;;38.80;17.90;;;-1.70;99.90;;;;;;4978635;28;20188;-82
2022/12/09 08:30:51;;;;;;;39.20;17.60;;;-1.80;99.90;;;;;;4967190;28;20196;-80
2022/12/09 08:33:36;;;;;;;41.13;18.53;;;-1.80;99.90;;;;;;5141356;22;20717;-80
2022/12/09 08:36:19;;;;;;;38.83;17.90;;;-1.90;99.90;;;;;;4985379;28;20222;-79
2022/12/09 08:38:45;;;;;;;48.57;21.97;;;-1.80;99.90;;;;;;4985994;28;20697;-79
2022/12/09 08:41:19;;;;;;;51.77;22.37;;;0.30;99.90;;;;;;4986722;28;20234;-78
2022/12/09 08:43:46;;;;;;;48.87;20.97;;;-2.10;99.90;;;;;;4981061;28;20208;-81
2022/12/09 08:46:12;;;;;;;45.67;21.17;;;-0.60;99.90;;;;;;4983722;28;20184;-79
2022/12/09 08:48:39;;;;;;;48.07;21.73;;;0.20;99.90;;;;;;4977535;28;21145;-79
2022/12/09 08:51:07;;;;;;;49.70;21.87;;;-0.40;99.90;;;;;;4993668;28;20192;-79
2022/12/09 08:53:32;;;;;;;52.43;23.90;;;-0.70;99.90;;;;;;4978170;28;20217;-79
2022/12/09 08:55:58;;;;;;;54.47;21.43;;;-0.20;99.90;;;;;;4981031;28;20222;-80
2022/12/09 08:58:24;;;;;;;66.20;25.13;;;-1.90;99.90;;;;;;4980484;28;20185;-79
2022/12/09 09:00:53;;;;;;;435.20;156.27;;;-0.40;99.90;;;;;;4973803;28;20185;-79
2022/12/09 09:03:18;;;;;;;130.87;48.10;;;0.30;99.90;;;;;;4980208;28;20223;-80
2022/12/09 09:05:44;;;;;;;104.73;31.93;;;-1.20;99.90;;;;;;4983078;28;20659;-79
2022/12/09 09:08:12;;;;;;;96.97;25.90;;;1.20;99.90;;;;;;4976036;28;20223;-79
2022/12/09 09:10:38;;;;;;;102.63;25.30;;;0.80;99.90;;;;;;4978060;28;20840;-80
2022/12/09 09:13:03;;;;;;;138.70;31.47;;;1.00;99.90;;;;;;4981809;28;20291;-79
2022/12/09 09:15:29;;;;;;;55.60;25.93;;;1.10;99.90;;;;;;4979110;28;20579;-79
2022/12/09 09:17:58;;;;;;;61.57;25.23;;;0.70;99.90;;;;;;4979783;28;20199;-80
2022/12/09 09:20:23;;;;;;;61.93;22.57;;;-0.40;99.90;;;;;;4975909;28;20557;-85
2022/12/09 09:22:49;;;;;;;71.93;25.63;;;-0.60;99.90;;;;;;4977256;28;20212;-81
2022/12/09 09:25:14;;;;;;;56.70;26.60;;;-0.20;99.90;;;;;;4979917;28;20192;-81
2022/12/09 09:27:40;;;;;;;62.67;31.67;;;-0.10;99.90;;;;;;4982000;28;20188;-81
2022/12/09 09:30:08;;;;;;;53.70;28.57;;;0.00;99.90;;;;;;4975943;28;20180;-81
2022/12/09 09:32:34;;;;;;;49.63;26.93;;;-0.10;99.90;;;;;;4979465;28;20232;-80
2022/12/09 09:34:59;;;;;;;61.50;23.10;;;0.10;99.90;;;;;;4986878;28;20203;-78
2022/12/09 09:37:25;;;;;;;46.60;22.40;;;0.20;99.90;;;;;;4981184;28;20188;-78
2022/12/09 09:39:50;;;;;;;71.77;25.10;;;0.20;99.90;;;;;;4986643;28;20192;-82
2022/12/09 09:42:22;;;;;;;67.47;26.63;;;0.20;99.90;;;;;;4982462;28;20712;-87
2022/12/09 09:44:50;;;;;;;53.77;22.30;;;0.20;99.90;;;;;;4992252;28;20278;-82
2022/12/09 09:47:18;;;;;;;78.23;27.27;;;0.20;99.90;;;;;;4981262;28;20189;-81
2022/12/09 09:50:02;;;;;;;89.63;30.00;;;0.20;99.90;;;;;;4977486;28;20255;-80
2022/12/09 09:52:29;;;;;;;52.87;29.00;;;0.20;99.90;;;;;;4973936;28;20919;-81
2022/12/09 09:54:55;;;;;;;74.23;24.53;;;0.30;99.90;;;;;;4980467;28;20655;-79
2022/12/09 09:57:31;;;;;;;55.30;22.07;;;0.20;99.90;;;;;;4974674;28;20207;-80
2022/12/09 10:00:25;;;;;;;61.00;27.57;;;0.20;99.90;;;;;;4979324;28;20187;-80
2022/12/09 10:03:03;;;;;;;72.87;19.90;;;0.20;99.90;;;;;;4981835;28;20216;-79
2022/12/09 10:05:31;;;;;;;77.00;17.83;;;0.20;99.90;;;;;;4982602;28;20674;-79
2022/12/09 10:08:30;;;;;;;53.47;19.60;;;0.00;99.90;;;;;;4975357;28;20259;-79
2022/12/09 10:11:09;;;;;;;45.80;18.47;;;0.10;99.90;;;;;;4985042;28;20568;-81
2022/12/09 10:14:02;;;;;;;42.50;19.10;;;0.10;99.90;;;;;;4980071;28;20340;-81
2022/12/09 10:16:42;;;;;;;55.80;19.47;;;0.20;99.90;;;;;;4987400;28;20212;-81
2022/12/09 10:19:18;;;;;;;44.30;20.07;;;0.30;99.90;;;;;;4987879;28;20203;-81
2022/12/09 10:21:46;;;;;;;42.57;20.33;;;0.40;99.90;;;;;;4983912;28;20860;-81
2022/12/09 10:24:31;;;;;;;42.27;20.47;;;0.50;99.90;;;;;;4994493;28;20599;-85
2022/12/09 10:27:01;;;;;;;43.47;20.10;;;0.60;99.90;;;;;;4985179;28;20264;-82
2022/12/09 10:29:53;;;;;;;49.40;20.13;;;0.60;99.90;;;;;;4996698;28;20189;-81
2022/12/09 10:32:20;;;;;;;44.80;19.50;;;0.70;99.90;;;;;;4997662;28;20205;-83
2022/12/09 10:34:47;;;;;;;50.57;19.60;;;0.70;99.90;;;;;;4989061;28;20254;-82
2022/12/09 10:37:34;;;;;;;56.23;20.23;;;0.60;99.90;;;;;;4985690;28;20214;-82
2022/12/09 10:40:06;;;;;;;41.50;18.57;;;0.60;99.90;;;;;;4985879;28;20290;-80
2022/12/09 10:45:28;;;;;;;49.33;19.03;;;0.80;99.90;;;;;;4987013;28;20188;-81
2022/12/09 10:47:53;;;;;;;60.33;17.93;;;0.80;99.90;;;;;;4987919;28;20184;-83
2022/12/09 10:50:32;;;;;;;33.70;17.23;;;0.80;99.90;;;;;;4985401;28;20200;-81
2022/12/09 10:53:10;;;;;;;55.50;17.87;;;0.90;99.90;;;;;;4985056;28;20207;-82
2022/12/09 10:55:39;;;;;;;74.17;18.87;;;0.90;99.90;;;;;;4988360;28;20255;-80
2022/12/09 10:58:19;;;;;;;31.30;16.63;;;1.00;99.90;;;;;;4982544;28;20185;-81
2022/12/09 11:01:05;;;;;;;38.97;16.13;;;1.00;99.90;;;;;;4975144;28;20578;-82
2022/12/09 11:03:33;;;;;;;39.20;16.80;;;1.00;99.90;;;;;;4994573;28;20588;-84
2022/12/09 11:06:38;;;;;;;38.10;18.00;;;1.10;99.90;;;;;;4979700;28;20632;-82
2022/12/09 11:09:04;;;;;;;35.30;17.80;;;0.90;99.90;;;;;;4982374;28;20180;-82
2022/12/09 11:11:48;;;;;;;38.73;17.03;;;1.00;99.90;;;;;;4976280;28;20200;-82
2022/12/09 11:14:24;;;;;;;34.23;17.77;;;1.00;99.90;;;;;;4978870;28;20215;-82
2022/12/09 11:16:58;;;;;;;41.63;20.43;;;1.00;99.90;;;;;;4991569;28;20804;-84
2022/12/09 11:19:33;;;;;;;41.63;21.17;;;1.10;99.90;;;;;;4978944;28;20204;-84
2022/12/09 11:22:21;;;;;;;39.87;19.07;;;1.10;99.90;;;;;;4982415;28;20623;-83
2022/12/09 11:24:48;;;;;;;34.23;17.80;;;1.20;90.30;;;;;;4976139;28;20185;-82
2022/12/09 11:27:33;;;;;;;36.13;18.67;;;1.20;85.40;;;;;;4982297;28;20753;-84
2022/12/09 11:30:19;;;;;;;42.27;22.80;;;1.30;82.80;;;;;;4988551;28;20192;-83
2022/12/09 11:33:19;;;;;;;49.40;30.03;;;1.40;72.90;;;;;;4978358;28;20223;-83
2022/12/09 11:35:44;;;;;;;29.80;16.20;;;1.40;54.70;;;;;;4983932;28;20204;-82
2022/12/09 11:38:30;;;;;;;29.67;17.33;;;1.30;14.30;;;;;;4976032;28;20254;-81
2022/12/09 11:41:10;;;;;;;26.57;16.87;;;1.30;1.00;;;;;;4983363;28;20200;-83
2022/12/09 11:43:46;;;;;;;28.93;14.80;;;1.30;1.00;;;;;;4998675;28;20536;-81
2022/12/09 11:46:12;;;;;;;27.97;14.37;;;1.30;1.00;;;;;;4985069;28;20207;-82
2022/12/09 11:48:59;;;;;;;27.97;14.53;;;1.30;1.00;;;;;;4984078;28;20699;-82
2022/12/09 11:51:33;;;;;;;27.97;15.27;;;1.30;1.00;;;;;;4977283;28;20199;-78
2022/12/09 11:54:09;;;;;;;25.60;14.20;;;1.40;1.00;;;;;;4973778;28;20212;-81
2022/12/09 11:56:37;;;;;;;29.93;15.23;;;1.50;1.00;;;;;;4988511;28;20216;-80
2022/12/09 11:59:18;;;;;;;25.20;13.53;;;1.40;1.00;;;;;;4971927;28;20612;-78
2022/12/09 12:02:09;;;;;;;29.10;15.50;;;1.30;99.90;;;;;;4972167;28;20185;-79
2022/12/09 12:04:41;;;;;;;28.03;15.17;;;1.20;1.00;;;;;;4969192;28;20486;-80
2022/12/09 12:07:14;;;;;;;26.57;13.83;;;1.20;1.00;;;;;;4974699;28;20507;-81
2022/12/09 12:09:52;;;;;;;25.90;13.73;;;1.30;94.50;;;;;;4970983;28;20188;-79
2022/12/09 12:12:27;;;;;;;23.20;13.37;;;1.40;99.90;;;;;;4970832;28;20694;-80
2022/12/09 12:14:57;;;;;;;24.80;14.00;;;1.30;99.90;;;;;;4988511;28;20179;-79
2022/12/09 12:17:35;;;;;;;28.27;14.30;;;2.10;1.00;;;;;;4969554;28;20500;-81
2022/12/09 12:20:03;;;;;;;25.53;14.20;;;1.10;99.90;;;;;;4973786;28;20185;-81
2022/12/09 12:22:31;;;;;;;29.00;15.13;;;1.20;1.00;;;;;;4978129;28;20219;-81
2022/12/09 12:25:15;;;;;;;27.43;14.23;;;1.30;1.00;;;;;;4975135;28;20184;-79
2022/12/09 12:28:06;;;;;;;25.40;13.93;;;1.30;1.00;;;;;;4977363;28;20283;-83
2022/12/09 12:30:44;;;;;;;30.53;16.57;;;1.30;1.00;;;;;;4982571;28;20246;-82
2022/12/09 12:33:29;;;;;;;33.07;21.37;;;1.40;1.00;;;;;;4982719;28;20219;-81
2022/12/09 12:36:01;;;;;;;31.27;18.20;;;1.40;1.00;;;;;;4981090;28;20201;-82
2022/12/09 12:39:04;;;;;;;27.83;16.13;;;1.40;1.00;;;;;;4985302;28;20184;-80
2022/12/09 12:41:59;;;;;;;28.30;15.07;;;1.40;99.90;;;;;;4972209;28;20299;-79
2022/12/09 12:48:10;;;;;;;30.13;16.90;;;1.40;99.90;;;;;;4983767;28;20198;-80
2022/12/09 12:50:50;;;;;;;31.10;17.03;;;1.30;99.90;;;;;;4980411;28;20195;-83
2022/12/09 12:53:50;;;;;;;33.27;17.03;;;1.30;1.00;;;;;;4998961;28;20725;-80